Anmoore, West Virginia
Current Conditions -  °F | °C
As of 11:53 AM on Saturday 25 Oct 2014 (Local Time) from KCKB Reporting Station
Broken Clouds Broken Clouds  
Wind Chill: 13°   Ceiling: 3700
Heat Index: 13°   Visibility: 10mi
Dew Point:   Wind: 7mph
Humidity: 69%   Direction: 220°SW
Pressure: 29.99"   Gusts: NA
Location:  39.26°N, 80.29°W
Report Text: KCKB 251553Z 22006KT 10SM BKN037 13/07 A2999 RMK AO2 SLP153 T01280072
Loading
Personal Weather Stations






























Interactive Weather Map
Tropical Storm Tracking
New forecast layout! Learn more

10-Day Weather Forecast

Advertisements
Track Severe Weather on mobile